sensor_id;sensor_type;location;lat;lon;timestamp;P1;durP1;ratioP1;P2;durP2;ratioP2
52764;SDS011;38650;44.536;18.664;2024-03-25T00:02:02;13.48;;;8.13;;
52764;SDS011;38650;44.536;18.664;2024-03-25T00:04:28;11.50;;;7.18;;
52764;SDS011;38650;44.536;18.664;2024-03-25T00:06:53;13.85;;;7.88;;
52764;SDS011;38650;44.536;18.664;2024-03-25T00:09:19;11.95;;;7.43;;
52764;SDS011;38650;44.536;18.664;2024-03-25T00:11:45;13.07;;;6.93;;
52764;SDS011;38650;44.536;18.664;2024-03-25T00:14:11;11.93;;;7.55;;
52764;SDS011;38650;44.536;18.664;2024-03-25T00:16:37;12.43;;;8.43;;
52764;SDS011;38650;44.536;18.664;2024-03-25T00:19:02;16.17;;;9.70;;
52764;SDS011;38650;44.536;18.664;2024-03-25T00:21:28;13.02;;;7.72;;
52764;SDS011;38650;44.536;18.664;2024-03-25T00:23:54;11.13;;;6.68;;
52764;SDS011;38650;44.536;18.664;2024-03-25T00:26:23;10.15;;;6.72;;
52764;SDS011;38650;44.536;18.664;2024-03-25T00:28:49;12.32;;;7.18;;
52764;SDS011;38650;44.536;18.664;2024-03-25T00:31:15;13.68;;;9.50;;
52764;SDS011;38650;44.536;18.664;2024-03-25T00:33:40;22.65;;;13.82;;
52764;SDS011;38650;44.536;18.664;2024-03-25T00:36:06;20.90;;;13.48;;
52764;SDS011;38650;44.536;18.664;2024-03-25T00:38:32;17.50;;;12.88;;
52764;SDS011;38650;44.536;18.664;2024-03-25T00:40:58;10.27;;;7.50;;
52764;SDS011;38650;44.536;18.664;2024-03-25T00:43:24;11.88;;;7.07;;
52764;SDS011;38650;44.536;18.664;2024-03-25T00:45:49;16.35;;;10.88;;
52764;SDS011;38650;44.536;18.664;2024-03-25T00:48:15;11.02;;;6.57;;
52764;SDS011;38650;44.536;18.664;2024-03-25T00:50:41;16.00;;;9.35;;
52764;SDS011;38650;44.536;18.664;2024-03-25T00:53:06;11.73;;;7.95;;
52764;SDS011;38650;44.536;18.664;2024-03-25T00:55:33;12.02;;;8.05;;
52764;SDS011;38650;44.536;18.664;2024-03-25T00:58:00;9.98;;;6.68;;
52764;SDS011;38650;44.536;18.664;2024-03-25T01:00:27;12.95;;;7.68;;
52764;SDS011;38650;44.536;18.664;2024-03-25T01:02:52;10.20;;;6.05;;
52764;SDS011;38650;44.536;18.664;2024-03-25T01:05:18;6.93;;;4.70;;
52764;SDS011;38650;44.536;18.664;2024-03-25T01:07:44;9.27;;;5.72;;
52764;SDS011;38650;44.536;18.664;2024-03-25T01:10:11;8.80;;;4.50;;
52764;SDS011;38650;44.536;18.664;2024-03-25T01:12:36;4.72;;;3.38;;
52764;SDS011;38650;44.536;18.664;2024-03-25T01:15:02;5.07;;;3.67;;
52764;SDS011;38650;44.536;18.664;2024-03-25T01:17:28;6.28;;;3.50;;
52764;SDS011;38650;44.536;18.664;2024-03-25T01:19:54;4.80;;;3.63;;
52764;SDS011;38650;44.536;18.664;2024-03-25T01:22:20;9.57;;;6.53;;
52764;SDS011;38650;44.536;18.664;2024-03-25T01:24:46;6.65;;;5.78;;
52764;SDS011;38650;44.536;18.664;2024-03-25T01:27:11;4.82;;;3.25;;
52764;SDS011;38650;44.536;18.664;2024-03-25T01:29:37;10.30;;;6.20;;
52764;SDS011;38650;44.536;18.664;2024-03-25T01:32:03;6.30;;;4.85;;
52764;SDS011;38650;44.536;18.664;2024-03-25T01:34:30;4.03;;;2.97;;
52764;SDS011;38650;44.536;18.664;2024-03-25T01:36:56;4.45;;;3.35;;
52764;SDS011;38650;44.536;18.664;2024-03-25T01:39:22;5.28;;;2.63;;
52764;SDS011;38650;44.536;18.664;2024-03-25T01:41:49;4.53;;;2.70;;
52764;SDS011;38650;44.536;18.664;2024-03-25T01:44:15;6.13;;;3.60;;
52764;SDS011;38650;44.536;18.664;2024-03-25T01:46:41;8.25;;;3.40;;
52764;SDS011;38650;44.536;18.664;2024-03-25T01:49:08;9.02;;;3.63;;
52764;SDS011;38650;44.536;18.664;2024-03-25T01:51:34;10.88;;;7.57;;
52764;SDS011;38650;44.536;18.664;2024-03-25T01:54:01;7.38;;;4.50;;
52764;SDS011;38650;44.536;18.664;2024-03-25T01:56:29;13.52;;;8.07;;
52764;SDS011;38650;44.536;18.664;2024-03-25T01:58:56;13.02;;;8.18;;
52764;SDS011;38650;44.536;18.664;2024-03-25T02:01:22;10.93;;;7.28;;
52764;SDS011;38650;44.536;18.664;2024-03-25T02:03:48;16.63;;;11.32;;
52764;SDS011;38650;44.536;18.664;2024-03-25T02:06:15;22.15;;;12.60;;
52764;SDS011;38650;44.536;18.664;2024-03-25T02:08:42;18.17;;;10.68;;
52764;SDS011;38650;44.536;18.664;2024-03-25T02:11:09;14.48;;;7.80;;
52764;SDS011;38650;44.536;18.664;2024-03-25T02:13:37;13.45;;;8.60;;
52764;SDS011;38650;44.536;18.664;2024-03-25T02:16:03;11.43;;;6.78;;
52764;SDS011;38650;44.536;18.664;2024-03-25T02:18:29;14.85;;;8.50;;
52764;SDS011;38650;44.536;18.664;2024-03-25T02:20:58;14.93;;;8.95;;
52764;SDS011;38650;44.536;18.664;2024-03-25T02:23:24;21.67;;;12.13;;
52764;SDS011;38650;44.536;18.664;2024-03-25T02:25:51;12.23;;;7.28;;
52764;SDS011;38650;44.536;18.664;2024-03-25T02:28:17;11.70;;;7.65;;
52764;SDS011;38650;44.536;18.664;2024-03-25T02:30:43;19.55;;;11.25;;
52764;SDS011;38650;44.536;18.664;2024-03-25T02:33:09;13.00;;;8.32;;
52764;SDS011;38650;44.536;18.664;2024-03-25T02:35:34;18.65;;;11.27;;
52764;SDS011;38650;44.536;18.664;2024-03-25T02:38:01;16.90;;;10.23;;
52764;SDS011;38650;44.536;18.664;2024-03-25T02:40:28;19.42;;;11.07;;
52764;SDS011;38650;44.536;18.664;2024-03-25T02:42:54;14.55;;;9.00;;
52764;SDS011;38650;44.536;18.664;2024-03-25T02:45:20;13.68;;;9.50;;
52764;SDS011;38650;44.536;18.664;2024-03-25T02:47:46;20.52;;;11.10;;
52764;SDS011;38650;44.536;18.664;2024-03-25T02:50:12;17.83;;;9.20;;
52764;SDS011;38650;44.536;18.664;2024-03-25T02:52:38;26.77;;;13.73;;
52764;SDS011;38650;44.536;18.664;2024-03-25T02:55:04;14.55;;;9.23;;
52764;SDS011;38650;44.536;18.664;2024-03-25T02:57:30;17.90;;;10.20;;
52764;SDS011;38650;44.536;18.664;2024-03-25T02:59:55;16.75;;;9.25;;
52764;SDS011;38650;44.536;18.664;2024-03-25T03:02:21;30.38;;;14.05;;
52764;SDS011;38650;44.536;18.664;2024-03-25T03:04:47;16.27;;;10.55;;
52764;SDS011;38650;44.536;18.664;2024-03-25T03:07:12;37.30;;;13.55;;
52764;SDS011;38650;44.536;18.664;2024-03-25T03:09:38;13.68;;;8.23;;
52764;SDS011;38650;44.536;18.664;2024-03-25T03:12:04;10.75;;;6.60;;
52764;SDS011;38650;44.536;18.664;2024-03-25T03:14:30;18.10;;;9.98;;
52764;SDS011;38650;44.536;18.664;2024-03-25T03:16:55;24.75;;;9.63;;
52764;SDS011;38650;44.536;18.664;2024-03-25T03:19:26;14.27;;;8.75;;
52764;SDS011;38650;44.536;18.664;2024-03-25T03:21:52;9.85;;;6.15;;
52764;SDS011;38650;44.536;18.664;2024-03-25T03:24:18;10.88;;;6.97;;
52764;SDS011;38650;44.536;18.664;2024-03-25T03:26:44;12.05;;;7.13;;
52764;SDS011;38650;44.536;18.664;2024-03-25T03:29:10;67.25;;;14.00;;
52764;SDS011;38650;44.536;18.664;2024-03-25T03:31:36;32.63;;;12.05;;
52764;SDS011;38650;44.536;18.664;2024-03-25T03:34:02;10.73;;;6.75;;
52764;SDS011;38650;44.536;18.664;2024-03-25T03:36:28;12.27;;;6.82;;
52764;SDS011;38650;44.536;18.664;2024-03-25T03:38:54;11.50;;;6.72;;
52764;SDS011;38650;44.536;18.664;2024-03-25T03:41:20;7.90;;;5.57;;
52764;SDS011;38650;44.536;18.664;2024-03-25T03:43:46;12.82;;;5.57;;
52764;SDS011;38650;44.536;18.664;2024-03-25T03:46:12;28.58;;;9.73;;
52764;SDS011;38650;44.536;18.664;2024-03-25T03:48:38;23.27;;;9.93;;
52764;SDS011;38650;44.536;18.664;2024-03-25T03:51:06;10.93;;;6.70;;
52764;SDS011;38650;44.536;18.664;2024-03-25T03:53:33;7.72;;;5.32;;
52764;SDS011;38650;44.536;18.664;2024-03-25T03:56:01;11.38;;;6.70;;
52764;SDS011;38650;44.536;18.664;2024-03-25T03:58:27;11.05;;;5.97;;
52764;SDS011;38650;44.536;18.664;2024-03-25T04:00:53;27.73;;;11.10;;
52764;SDS011;38650;44.536;18.664;2024-03-25T04:03:19;7.95;;;5.32;;
52764;SDS011;38650;44.536;18.664;2024-03-25T04:05:45;9.68;;;5.47;;
52764;SDS011;38650;44.536;18.664;2024-03-25T04:08:11;23.08;;;10.32;;
52764;SDS011;38650;44.536;18.664;2024-03-25T04:10:36;8.95;;;5.93;;
52764;SDS011;38650;44.536;18.664;2024-03-25T04:13:03;7.40;;;4.53;;
52764;SDS011;38650;44.536;18.664;2024-03-25T04:15:32;8.20;;;5.20;;
52764;SDS011;38650;44.536;18.664;2024-03-25T04:17:58;10.73;;;6.72;;
52764;SDS011;38650;44.536;18.664;2024-03-25T04:20:23;22.10;;;10.13;;
52764;SDS011;38650;44.536;18.664;2024-03-25T04:22:49;27.23;;;13.40;;
52764;SDS011;38650;44.536;18.664;2024-03-25T04:25:15;22.65;;;11.45;;
52764;SDS011;38650;44.536;18.664;2024-03-25T04:27:41;13.73;;;7.95;;
52764;SDS011;38650;44.536;18.664;2024-03-25T04:30:08;27.50;;;12.32;;
52764;SDS011;38650;44.536;18.664;2024-03-25T04:32:35;19.58;;;11.23;;
52764;SDS011;38650;44.536;18.664;2024-03-25T04:35:01;14.05;;;8.48;;
52764;SDS011;38650;44.536;18.664;2024-03-25T04:37:28;15.57;;;8.75;;
52764;SDS011;38650;44.536;18.664;2024-03-25T04:39:54;18.65;;;10.35;;
52764;SDS011;38650;44.536;18.664;2024-03-25T04:42:21;22.25;;;10.48;;
52764;SDS011;38650;44.536;18.664;2024-03-25T04:44:47;12.80;;;7.97;;
52764;SDS011;38650;44.536;18.664;2024-03-25T04:47:13;20.58;;;10.77;;
52764;SDS011;38650;44.536;18.664;2024-03-25T04:49:40;21.20;;;10.35;;
52764;SDS011;38650;44.536;18.664;2024-03-25T04:52:07;17.77;;;10.13;;
52764;SDS011;38650;44.536;18.664;2024-03-25T04:54:32;18.13;;;11.23;;
52764;SDS011;38650;44.536;18.664;2024-03-25T04:56:58;23.92;;;12.05;;
52764;SDS011;38650;44.536;18.664;2024-03-25T04:59:24;21.48;;;12.38;;
52764;SDS011;38650;44.536;18.664;2024-03-25T05:01:49;15.05;;;8.38;;
52764;SDS011;38650;44.536;18.664;2024-03-25T05:04:17;16.75;;;10.02;;
52764;SDS011;38650;44.536;18.664;2024-03-25T05:06:43;11.00;;;7.00;;
52764;SDS011;38650;44.536;18.664;2024-03-25T05:09:09;15.07;;;8.30;;
52764;SDS011;38650;44.536;18.664;2024-03-25T05:11:35;24.50;;;11.35;;
52764;SDS011;38650;44.536;18.664;2024-03-25T05:14:01;17.80;;;10.38;;
52764;SDS011;38650;44.536;18.664;2024-03-25T05:16:26;15.65;;;9.98;;
52764;SDS011;38650;44.536;18.664;2024-03-25T05:18:52;11.80;;;8.02;;
52764;SDS011;38650;44.536;18.664;2024-03-25T05:21:18;15.95;;;8.55;;
52764;SDS011;38650;44.536;18.664;2024-03-25T05:23:43;9.52;;;5.97;;
52764;SDS011;38650;44.536;18.664;2024-03-25T05:26:09;9.15;;;6.00;;
52764;SDS011;38650;44.536;18.664;2024-03-25T05:28:35;8.82;;;5.50;;
52764;SDS011;38650;44.536;18.664;2024-03-25T05:31:09;9.15;;;5.65;;
52764;SDS011;38650;44.536;18.664;2024-03-25T05:33:35;15.50;;;8.88;;
52764;SDS011;38650;44.536;18.664;2024-03-25T05:36:02;9.15;;;4.85;;
52764;SDS011;38650;44.536;18.664;2024-03-25T05:38:28;7.68;;;5.13;;
52764;SDS011;38650;44.536;18.664;2024-03-25T05:40:54;6.28;;;3.95;;
52764;SDS011;38650;44.536;18.664;2024-03-25T05:43:20;7.68;;;4.22;;
52764;SDS011;38650;44.536;18.664;2024-03-25T05:45:52;10.05;;;6.30;;
52764;SDS011;38650;44.536;18.664;2024-03-25T05:48:19;5.82;;;4.47;;
52764;SDS011;38650;44.536;18.664;2024-03-25T05:51:06;8.27;;;4.35;;
52764;SDS011;38650;44.536;18.664;2024-03-25T05:53:34;5.85;;;4.38;;
52764;SDS011;38650;44.536;18.664;2024-03-25T05:56:01;8.02;;;5.22;;
52764;SDS011;38650;44.536;18.664;2024-03-25T05:58:27;8.38;;;5.40;;
52764;SDS011;38650;44.536;18.664;2024-03-25T06:00:53;8.82;;;4.82;;
52764;SDS011;38650;44.536;18.664;2024-03-25T06:03:19;10.95;;;6.43;;
52764;SDS011;38650;44.536;18.664;2024-03-25T06:05:45;12.35;;;6.70;;
52764;SDS011;38650;44.536;18.664;2024-03-25T06:08:11;9.30;;;5.00;;
52764;SDS011;38650;44.536;18.664;2024-03-25T06:10:49;9.02;;;5.80;;
52764;SDS011;38650;44.536;18.664;2024-03-25T06:13:16;8.82;;;5.75;;
52764;SDS011;38650;44.536;18.664;2024-03-25T06:15:42;14.05;;;7.95;;
52764;SDS011;38650;44.536;18.664;2024-03-25T06:18:07;15.40;;;7.00;;
52764;SDS011;38650;44.536;18.664;2024-03-25T06:20:33;10.65;;;5.68;;
52764;SDS011;38650;44.536;18.664;2024-03-25T06:22:59;8.95;;;5.75;;
52764;SDS011;38650;44.536;18.664;2024-03-25T06:25:24;10.80;;;7.65;;
52764;SDS011;38650;44.536;18.664;2024-03-25T06:27:50;8.05;;;5.10;;
52764;SDS011;38650;44.536;18.664;2024-03-25T06:30:16;9.25;;;5.35;;
52764;SDS011;38650;44.536;18.664;2024-03-25T06:33:00;12.07;;;7.32;;
52764;SDS011;38650;44.536;18.664;2024-03-25T06:35:44;13.25;;;8.10;;
52764;SDS011;38650;44.536;18.664;2024-03-25T06:38:10;11.68;;;6.82;;
52764;SDS011;38650;44.536;18.664;2024-03-25T06:40:36;10.70;;;6.50;;
52764;SDS011;38650;44.536;18.664;2024-03-25T06:43:02;10.20;;;6.22;;
52764;SDS011;38650;44.536;18.664;2024-03-25T06:45:28;10.93;;;6.55;;
52764;SDS011;38650;44.536;18.664;2024-03-25T06:47:55;7.65;;;5.43;;
52764;SDS011;38650;44.536;18.664;2024-03-25T06:50:21;10.90;;;6.72;;
52764;SDS011;38650;44.536;18.664;2024-03-25T06:52:47;10.55;;;5.45;;
52764;SDS011;38650;44.536;18.664;2024-03-25T06:55:13;7.95;;;5.25;;
52764;SDS011;38650;44.536;18.664;2024-03-25T06:57:38;8.98;;;6.15;;
52764;SDS011;38650;44.536;18.664;2024-03-25T07:00:04;8.02;;;5.57;;
52764;SDS011;38650;44.536;18.664;2024-03-25T07:02:32;10.43;;;6.82;;
52764;SDS011;38650;44.536;18.664;2024-03-25T07:04:59;11.93;;;7.47;;
52764;SDS011;38650;44.536;18.664;2024-03-25T07:07:24;15.10;;;9.57;;
52764;SDS011;38650;44.536;18.664;2024-03-25T07:09:50;9.30;;;6.68;;
52764;SDS011;38650;44.536;18.664;2024-03-25T07:12:16;8.43;;;6.00;;
52764;SDS011;38650;44.536;18.664;2024-03-25T07:14:42;8.98;;;6.25;;
52764;SDS011;38650;44.536;18.664;2024-03-25T07:17:07;8.27;;;6.15;;
52764;SDS011;38650;44.536;18.664;2024-03-25T07:19:36;17.40;;;10.88;;
52764;SDS011;38650;44.536;18.664;2024-03-25T07:22:02;10.68;;;7.82;;
52764;SDS011;38650;44.536;18.664;2024-03-25T07:24:28;13.57;;;8.48;;
52764;SDS011;38650;44.536;18.664;2024-03-25T07:26:54;9.93;;;6.30;;
52764;SDS011;38650;44.536;18.664;2024-03-25T07:29:19;13.80;;;9.43;;
52764;SDS011;38650;44.536;18.664;2024-03-25T07:31:45;9.98;;;6.78;;
52764;SDS011;38650;44.536;18.664;2024-03-25T07:34:11;14.90;;;9.32;;
52764;SDS011;38650;44.536;18.664;2024-03-25T07:36:37;12.98;;;7.93;;
52764;SDS011;38650;44.536;18.664;2024-03-25T07:39:06;7.50;;;6.35;;
52764;SDS011;38650;44.536;18.664;2024-03-25T07:41:36;10.27;;;7.25;;
52764;SDS011;38650;44.536;18.664;2024-03-25T07:44:02;11.45;;;7.13;;
52764;SDS011;38650;44.536;18.664;2024-03-25T07:46:27;11.80;;;8.30;;
52764;SDS011;38650;44.536;18.664;2024-03-25T07:48:56;9.63;;;6.22;;
52764;SDS011;38650;44.536;18.664;2024-03-25T07:51:25;8.88;;;5.97;;
52764;SDS011;38650;44.536;18.664;2024-03-25T07:53:51;9.90;;;6.47;;
52764;SDS011;38650;44.536;18.664;2024-03-25T07:56:16;11.43;;;7.90;;
52764;SDS011;38650;44.536;18.664;2024-03-25T07:58:42;8.88;;;4.85;;
52764;SDS011;38650;44.536;18.664;2024-03-25T08:01:08;8.38;;;5.35;;
52764;SDS011;38650;44.536;18.664;2024-03-25T08:03:33;6.00;;;5.38;;
52764;SDS011;38650;44.536;18.664;2024-03-25T08:05:59;8.10;;;5.88;;
52764;SDS011;38650;44.536;18.664;2024-03-25T08:08:25;7.97;;;5.95;;
52764;SDS011;38650;44.536;18.664;2024-03-25T08:10:51;10.00;;;5.90;;
52764;SDS011;38650;44.536;18.664;2024-03-25T08:13:21;8.40;;;5.80;;
52764;SDS011;38650;44.536;18.664;2024-03-25T08:15:46;7.43;;;5.78;;
52764;SDS011;38650;44.536;18.664;2024-03-25T08:18:12;8.10;;;5.22;;
52764;SDS011;38650;44.536;18.664;2024-03-25T08:20:38;7.13;;;5.60;;
52764;SDS011;38650;44.536;18.664;2024-03-25T08:23:04;6.85;;;5.13;;
52764;SDS011;38650;44.536;18.664;2024-03-25T08:25:35;6.07;;;5.47;;
52764;SDS011;38650;44.536;18.664;2024-03-25T08:28:08;7.38;;;5.20;;
52764;SDS011;38650;44.536;18.664;2024-03-25T08:30:37;8.70;;;6.30;;
52764;SDS011;38650;44.536;18.664;2024-03-25T08:33:04;6.80;;;5.65;;
52764;SDS011;38650;44.536;18.664;2024-03-25T08:35:37;9.82;;;7.95;;
52764;SDS011;38650;44.536;18.664;2024-03-25T08:38:04;8.38;;;6.80;;
52764;SDS011;38650;44.536;18.664;2024-03-25T08:40:33;8.00;;;6.22;;
52764;SDS011;38650;44.536;18.664;2024-03-25T08:43:01;12.68;;;9.10;;
52764;SDS011;38650;44.536;18.664;2024-03-25T08:45:27;8.68;;;5.82;;
52764;SDS011;38650;44.536;18.664;2024-03-25T08:47:54;7.32;;;6.22;;
52764;SDS011;38650;44.536;18.664;2024-03-25T08:50:26;8.65;;;5.93;;
52764;SDS011;38650;44.536;18.664;2024-03-25T08:52:52;11.23;;;8.27;;
52764;SDS011;38650;44.536;18.664;2024-03-25T08:55:17;6.28;;;5.22;;
52764;SDS011;38650;44.536;18.664;2024-03-25T08:57:46;9.13;;;6.50;;
52764;SDS011;38650;44.536;18.664;2024-03-25T09:00:13;9.73;;;7.60;;
52764;SDS011;38650;44.536;18.664;2024-03-25T09:02:39;9.45;;;7.25;;
52764;SDS011;38650;44.536;18.664;2024-03-25T09:05:05;5.95;;;5.10;;
52764;SDS011;38650;44.536;18.664;2024-03-25T09:07:32;6.18;;;5.55;;
52764;SDS011;38650;44.536;18.664;2024-03-25T09:09:58;6.78;;;5.68;;
52764;SDS011;38650;44.536;18.664;2024-03-25T09:12:42;7.35;;;5.57;;
52764;SDS011;38650;44.536;18.664;2024-03-25T09:15:08;5.32;;;4.22;;
52764;SDS011;38650;44.536;18.664;2024-03-25T09:17:35;5.47;;;4.97;;
52764;SDS011;38650;44.536;18.664;2024-03-25T09:20:01;4.07;;;3.70;;
52764;SDS011;38650;44.536;18.664;2024-03-25T09:22:45;4.22;;;3.50;;
52764;SDS011;38650;44.536;18.664;2024-03-25T09:25:15;3.50;;;3.08;;
52764;SDS011;38650;44.536;18.664;2024-03-25T09:27:52;4.70;;;2.90;;
52764;SDS011;38650;44.536;18.664;2024-03-25T09:30:18;3.55;;;2.75;;
52764;SDS011;38650;44.536;18.664;2024-03-25T09:32:44;4.53;;;3.03;;
52764;SDS011;38650;44.536;18.664;2024-03-25T09:35:10;2.92;;;2.47;;
52764;SDS011;38650;44.536;18.664;2024-03-25T09:37:36;4.28;;;3.20;;
52764;SDS011;38650;44.536;18.664;2024-03-25T09:40:04;3.42;;;2.63;;
52764;SDS011;38650;44.536;18.664;2024-03-25T09:42:47;2.13;;;1.73;;
52764;SDS011;38650;44.536;18.664;2024-03-25T09:45:13;2.55;;;1.70;;
52764;SDS011;38650;44.536;18.664;2024-03-25T09:47:44;2.15;;;1.58;;
52764;SDS011;38650;44.536;18.664;2024-03-25T09:50:12;2.33;;;1.58;;
52764;SDS011;38650;44.536;18.664;2024-03-25T09:52:48;1.40;;;1.30;;
52764;SDS011;38650;44.536;18.664;2024-03-25T09:55:17;2.38;;;1.73;;
52764;SDS011;38650;44.536;18.664;2024-03-25T09:57:49;2.38;;;1.25;;
52764;SDS011;38650;44.536;18.664;2024-03-25T10:00:15;0.98;;;0.90;;
52764;SDS011;38650;44.536;18.664;2024-03-25T10:02:42;1.73;;;1.42;;
52764;SDS011;38650;44.536;18.664;2024-03-25T10:05:08;1.45;;;0.88;;
52764;SDS011;38650;44.536;18.664;2024-03-25T10:07:34;1.10;;;0.68;;
52764;SDS011;38650;44.536;18.664;2024-03-25T10:10:03;1.48;;;1.05;;
52764;SDS011;38650;44.536;18.664;2024-03-25T10:12:30;1.83;;;0.70;;
52764;SDS011;38650;44.536;18.664;2024-03-25T10:14:56;1.27;;;0.80;;
52764;SDS011;38650;44.536;18.664;2024-03-25T10:17:22;1.52;;;1.17;;
52764;SDS011;38650;44.536;18.664;2024-03-25T10:19:49;1.70;;;1.00;;
52764;SDS011;38650;44.536;18.664;2024-03-25T10:22:18;2.50;;;1.75;;
52764;SDS011;38650;44.536;18.664;2024-03-25T10:24:44;1.98;;;1.20;;
52764;SDS011;38650;44.536;18.664;2024-03-25T10:27:20;1.60;;;1.40;;
52764;SDS011;38650;44.536;18.664;2024-03-25T10:29:55;1.17;;;1.05;;
52764;SDS011;38650;44.536;18.664;2024-03-25T10:32:23;1.10;;;1.00;;
52764;SDS011;38650;44.536;18.664;2024-03-25T10:34:53;1.33;;;1.00;;
52764;SDS011;38650;44.536;18.664;2024-03-25T10:37:24;1.63;;;1.00;;
52764;SDS011;38650;44.536;18.664;2024-03-25T10:39:57;2.08;;;1.58;;
52764;SDS011;38650;44.536;18.664;2024-03-25T10:42:26;1.15;;;1.05;;
52764;SDS011;38650;44.536;18.664;2024-03-25T10:44:52;2.63;;;1.63;;
52764;SDS011;38650;44.536;18.664;2024-03-25T10:47:19;1.83;;;1.55;;
52764;SDS011;38650;44.536;18.664;2024-03-25T10:49:52;2.55;;;1.50;;
52764;SDS011;38650;44.536;18.664;2024-03-25T10:52:23;1.63;;;1.20;;
52764;SDS011;38650;44.536;18.664;2024-03-25T10:54:51;2.30;;;1.08;;
52764;SDS011;38650;44.536;18.664;2024-03-25T10:57:19;4.70;;;2.47;;
52764;SDS011;38650;44.536;18.664;2024-03-25T10:59:45;2.05;;;1.58;;
52764;SDS011;38650;44.536;18.664;2024-03-25T11:02:12;1.30;;;1.20;;
52764;SDS011;38650;44.536;18.664;2024-03-25T11:04:39;1.10;;;1.00;;
52764;SDS011;38650;44.536;18.664;2024-03-25T11:07:11;2.58;;;0.88;;
52764;SDS011;38650;44.536;18.664;2024-03-25T11:09:42;1.73;;;0.80;;
52764;SDS011;38650;44.536;18.664;2024-03-25T11:12:12;0.90;;;0.80;;
52764;SDS011;38650;44.536;18.664;2024-03-25T11:14:43;2.92;;;1.13;;
52764;SDS011;38650;44.536;18.664;2024-03-25T11:17:16;2.13;;;1.45;;
52764;SDS011;38650;44.536;18.664;2024-03-25T11:19:44;2.90;;;1.85;;
52764;SDS011;38650;44.536;18.664;2024-03-25T11:22:10;1.83;;;1.48;;
52764;SDS011;38650;44.536;18.664;2024-03-25T11:24:36;2.75;;;1.48;;
52764;SDS011;38650;44.536;18.664;2024-03-25T11:27:08;2.83;;;2.08;;
52764;SDS011;38650;44.536;18.664;2024-03-25T11:29:34;2.17;;;1.52;;
52764;SDS011;38650;44.536;18.664;2024-03-25T11:32:04;2.65;;;1.67;;
52764;SDS011;38650;44.536;18.664;2024-03-25T11:34:33;2.40;;;1.77;;
52764;SDS011;38650;44.536;18.664;2024-03-25T11:37:00;2.08;;;1.75;;
52764;SDS011;38650;44.536;18.664;2024-03-25T11:39:30;2.20;;;1.70;;
52764;SDS011;38650;44.536;18.664;2024-03-25T11:41:55;3.30;;;1.90;;
52764;SDS011;38650;44.536;18.664;2024-03-25T11:44:22;4.03;;;2.40;;
52764;SDS011;38650;44.536;18.664;2024-03-25T11:46:49;2.70;;;1.83;;
52764;SDS011;38650;44.536;18.664;2024-03-25T11:49:16;1.98;;;1.77;;
52764;SDS011;38650;44.536;18.664;2024-03-25T11:51:44;2.53;;;1.65;;
52764;SDS011;38650;44.536;18.664;2024-03-25T11:54:11;2.63;;;1.25;;
52764;SDS011;38650;44.536;18.664;2024-03-25T11:56:37;1.75;;;1.17;;
52764;SDS011;38650;44.536;18.664;2024-03-25T11:59:03;2.38;;;1.08;;
52764;SDS011;38650;44.536;18.664;2024-03-25T12:01:30;1.95;;;0.90;;
52764;SDS011;38650;44.536;18.664;2024-03-25T12:03:56;1.27;;;0.70;;
52764;SDS011;38650;44.536;18.664;2024-03-25T12:06:22;1.52;;;0.75;;
52764;SDS011;38650;44.536;18.664;2024-03-25T12:08:48;1.65;;;1.17;;
52764;SDS011;38650;44.536;18.664;2024-03-25T12:11:33;2.45;;;1.30;;
52764;SDS011;38650;44.536;18.664;2024-03-25T12:14:00;1.77;;;1.15;;
52764;SDS011;38650;44.536;18.664;2024-03-25T12:16:26;2.42;;;1.23;;
52764;SDS011;38650;44.536;18.664;2024-03-25T12:18:52;1.70;;;1.10;;
52764;SDS011;38650;44.536;18.664;2024-03-25T12:21:19;3.63;;;1.90;;
52764;SDS011;38650;44.536;18.664;2024-03-25T12:23:45;2.80;;;1.15;;
52764;SDS011;38650;44.536;18.664;2024-03-25T12:26:12;1.33;;;0.80;;
52764;SDS011;38650;44.536;18.664;2024-03-25T12:28:39;0.73;;;0.55;;
52764;SDS011;38650;44.536;18.664;2024-03-25T12:31:08;1.80;;;0.80;;
52764;SDS011;38650;44.536;18.664;2024-03-25T12:33:43;1.75;;;0.90;;
52764;SDS011;38650;44.536;18.664;2024-03-25T12:36:12;1.70;;;0.77;;
52764;SDS011;38650;44.536;18.664;2024-03-25T12:38:38;1.65;;;0.68;;
52764;SDS011;38650;44.536;18.664;2024-03-25T12:41:04;1.90;;;0.80;;
52764;SDS011;38650;44.536;18.664;2024-03-25T12:43:35;1.38;;;0.98;;
52764;SDS011;38650;44.536;18.664;2024-03-25T12:46:01;1.85;;;0.90;;
52764;SDS011;38650;44.536;18.664;2024-03-25T12:48:30;1.60;;;0.82;;
52764;SDS011;38650;44.536;18.664;2024-03-25T12:50:56;2.08;;;1.15;;
52764;SDS011;38650;44.536;18.664;2024-03-25T12:53:22;1.40;;;0.82;;
52764;SDS011;38650;44.536;18.664;2024-03-25T12:55:48;0.80;;;0.70;;
52764;SDS011;38650;44.536;18.664;2024-03-25T12:58:14;0.93;;;0.70;;
52764;SDS011;38650;44.536;18.664;2024-03-25T13:00:40;2.15;;;0.50;;
52764;SDS011;38650;44.536;18.664;2024-03-25T13:03:07;2.60;;;0.70;;
52764;SDS011;38650;44.536;18.664;2024-03-25T13:05:33;2.30;;;0.60;;
52764;SDS011;38650;44.536;18.664;2024-03-25T13:08:00;1.35;;;0.43;;
52764;SDS011;38650;44.536;18.664;2024-03-25T13:10:26;1.25;;;0.50;;
52764;SDS011;38650;44.536;18.664;2024-03-25T13:12:53;1.58;;;0.70;;
52764;SDS011;38650;44.536;18.664;2024-03-25T13:15:19;1.17;;;0.60;;
52764;SDS011;38650;44.536;18.664;2024-03-25T13:17:44;0.40;;;0.40;;
52764;SDS011;38650;44.536;18.664;2024-03-25T13:20:10;1.02;;;0.70;;
52764;SDS011;38650;44.536;18.664;2024-03-25T13:22:36;0.90;;;0.70;;
52764;SDS011;38650;44.536;18.664;2024-03-25T13:25:03;0.77;;;0.70;;
52764;SDS011;38650;44.536;18.664;2024-03-25T13:27:29;1.13;;;0.70;;
52764;SDS011;38650;44.536;18.664;2024-03-25T13:29:58;0.73;;;0.47;;
52764;SDS011;38650;44.536;18.664;2024-03-25T13:32:23;0.52;;;0.40;;
52764;SDS011;38650;44.536;18.664;2024-03-25T13:34:49;0.90;;;0.38;;
52764;SDS011;38650;44.536;18.664;2024-03-25T13:37:15;0.77;;;0.50;;
52764;SDS011;38650;44.536;18.664;2024-03-25T13:39:41;1.17;;;0.47;;
52764;SDS011;38650;44.536;18.664;2024-03-25T13:42:07;0.68;;;0.57;;
52764;SDS011;38650;44.536;18.664;2024-03-25T13:44:32;0.77;;;0.50;;
52764;SDS011;38650;44.536;18.664;2024-03-25T13:46:58;1.25;;;0.70;;
52764;SDS011;38650;44.536;18.664;2024-03-25T13:49:24;3.13;;;0.50;;
52764;SDS011;38650;44.536;18.664;2024-03-25T13:51:56;1.02;;;0.50;;
52764;SDS011;38650;44.536;18.664;2024-03-25T13:54:29;0.85;;;0.50;;
52764;SDS011;38650;44.536;18.664;2024-03-25T13:56:57;0.98;;;0.40;;
52764;SDS011;38650;44.536;18.664;2024-03-25T13:59:23;1.23;;;0.43;;
52764;SDS011;38650;44.536;18.664;2024-03-25T14:01:49;1.60;;;0.43;;
52764;SDS011;38650;44.536;18.664;2024-03-25T14:04:16;0.40;;;0.30;;
52764;SDS011;38650;44.536;18.664;2024-03-25T14:06:43;2.10;;;1.02;;
52764;SDS011;38650;44.536;18.664;2024-03-25T14:09:10;1.02;;;0.70;;
52764;SDS011;38650;44.536;18.664;2024-03-25T14:11:52;2.10;;;1.50;;
52764;SDS011;38650;44.536;18.664;2024-03-25T14:14:18;1.08;;;0.40;;
52764;SDS011;38650;44.536;18.664;2024-03-25T14:16:44;1.33;;;0.60;;
52764;SDS011;38650;44.536;18.664;2024-03-25T14:19:09;0.80;;;0.47;;
52764;SDS011;38650;44.536;18.664;2024-03-25T14:21:35;0.30;;;0.30;;
52764;SDS011;38650;44.536;18.664;2024-03-25T14:24:01;0.40;;;0.30;;
52764;SDS011;38650;44.536;18.664;2024-03-25T14:26:27;0.30;;;0.30;;
52764;SDS011;38650;44.536;18.664;2024-03-25T14:28:53;0.75;;;0.30;;